sensor_id;sensor_type;location;lat;lon;timestamp;pressure;altitude;pressure_sealevel;temperature;humidity
76864;BME280;65834;52.364;9.754;2022-12-18T00:00:44;102316.63;;;-4.92;75.91
76864;BME280;65834;52.364;9.754;2022-12-18T00:03:15;102315.81;;;-4.94;76.33
76864;BME280;65834;52.364;9.754;2022-12-18T00:05:48;102321.91;;;-4.92;76.00
76864;BME280;65834;52.364;9.754;2022-12-18T00:08:19;102325.56;;;-4.96;75.97
76864;BME280;65834;52.364;9.754;2022-12-18T00:10:51;102313.44;;;-5.02;76.00
76864;BME280;65834;52.364;9.754;2022-12-18T00:13:27;102317.00;;;-5.04;76.32
76864;BME280;65834;52.364;9.754;2022-12-18T00:16:01;102322.25;;;-5.03;76.12
76864;BME280;65834;52.364;9.754;2022-12-18T00:18:32;102335.47;;;-5.04;75.94
76864;BME280;65834;52.364;9.754;2022-12-18T00:21:04;102340.91;;;-5.09;76.46
76864;BME280;65834;52.364;9.754;2022-12-18T00:23:35;102347.13;;;-5.11;76.06
76864;BME280;65834;52.364;9.754;2022-12-18T00:26:18;102348.84;;;-5.10;76.54
76864;BME280;65834;52.364;9.754;2022-12-18T00:28:51;102346.03;;;-5.04;76.51
76864;BME280;65834;52.364;9.754;2022-12-18T00:31:23;102342.75;;;-5.12;76.12
76864;BME280;65834;52.364;9.754;2022-12-18T00:33:54;102347.13;;;-5.11;76.42
76864;BME280;65834;52.364;9.754;2022-12-18T00:36:27;102345.59;;;-5.20;76.73
76864;BME280;65834;52.364;9.754;2022-12-18T00:38:58;102334.31;;;-5.23;76.39
76864;BME280;65834;52.364;9.754;2022-12-18T00:41:30;102338.53;;;-5.18;76.59
76864;BME280;65834;52.364;9.754;2022-12-18T00:44:14;102339.25;;;-5.13;75.99
76864;BME280;65834;52.364;9.754;2022-12-18T00:46:45;102334.25;;;-5.22;76.75
76864;BME280;65834;52.364;9.754;2022-12-18T00:49:16;102344.97;;;-5.28;76.90
76864;BME280;65834;52.364;9.754;2022-12-18T00:51:46;102346.63;;;-5.24;76.68
76864;BME280;65834;52.364;9.754;2022-12-18T00:54:17;102353.78;;;-5.29;76.36
76864;BME280;65834;52.364;9.754;2022-12-18T00:56:49;102355.63;;;-5.31;76.72
76864;BME280;65834;52.364;9.754;2022-12-18T00:59:19;102354.72;;;-5.30;76.58
76864;BME280;65834;52.364;9.754;2022-12-18T01:01:49;102354.75;;;-5.31;76.41
76864;BME280;65834;52.364;9.754;2022-12-18T01:04:19;102358.34;;;-5.34;77.20
76864;BME280;65834;52.364;9.754;2022-12-18T01:06:49;102351.31;;;-5.33;77.20
76864;BME280;65834;52.364;9.754;2022-12-18T01:09:19;102347.78;;;-5.32;76.75
76864;BME280;65834;52.364;9.754;2022-12-18T01:11:53;102344.38;;;-5.37;77.20
76864;BME280;65834;52.364;9.754;2022-12-18T01:14:23;102341.53;;;-5.30;76.97
76864;BME280;65834;52.364;9.754;2022-12-18T01:16:52;102344.44;;;-5.39;76.89
76864;BME280;65834;52.364;9.754;2022-12-18T01:19:22;102350.31;;;-5.29;77.17
76864;BME280;65834;52.364;9.754;2022-12-18T01:21:53;102351.22;;;-5.30;76.86
76864;BME280;65834;52.364;9.754;2022-12-18T01:24:23;102352.97;;;-5.31;76.69
76864;BME280;65834;52.364;9.754;2022-12-18T01:26:55;102353.03;;;-5.32;77.04
76864;BME280;65834;52.364;9.754;2022-12-18T01:29:25;102346.03;;;-5.33;76.79
76864;BME280;65834;52.364;9.754;2022-12-18T01:31:55;102353.94;;;-5.33;76.59
76864;BME280;65834;52.364;9.754;2022-12-18T01:34:24;102357.47;;;-5.34;76.64
76864;BME280;65834;52.364;9.754;2022-12-18T01:36:54;102354.97;;;-5.39;76.64
76864;BME280;65834;52.364;9.754;2022-12-18T01:39:24;102352.94;;;-5.29;76.29
76864;BME280;65834;52.364;9.754;2022-12-18T01:41:56;102346.94;;;-5.34;76.50
76864;BME280;65834;52.364;9.754;2022-12-18T01:45:00;102360.19;;;-5.37;76.78
76864;BME280;65834;52.364;9.754;2022-12-18T01:47:33;102359.28;;;-5.36;76.67
76864;BME280;65834;52.364;9.754;2022-12-18T01:50:09;102359.28;;;-5.36;76.40
76864;BME280;65834;52.364;9.754;2022-12-18T01:52:41;102364.69;;;-5.41;76.48
76864;BME280;65834;52.364;9.754;2022-12-18T01:55:13;102361.22;;;-5.41;76.78
76864;BME280;65834;52.364;9.754;2022-12-18T01:57:48;102355.94;;;-5.41;76.97
76864;BME280;65834;52.364;9.754;2022-12-18T02:00:20;102368.34;;;-5.45;76.74
76864;BME280;65834;52.364;9.754;2022-12-18T02:02:51;102363.00;;;-5.43;77.10
76864;BME280;65834;52.364;9.754;2022-12-18T02:05:26;102371.88;;;-5.46;76.79
76864;BME280;65834;52.364;9.754;2022-12-18T02:08:06;102369.97;;;-5.41;76.51
76864;BME280;65834;52.364;9.754;2022-12-18T02:10:44;102385.84;;;-5.42;76.65
76864;BME280;65834;52.364;9.754;2022-12-18T02:13:28;102379.88;;;-5.49;76.90
76864;BME280;65834;52.364;9.754;2022-12-18T02:16:04;102382.59;;;-5.52;77.22
76864;BME280;65834;52.364;9.754;2022-12-18T02:18:43;102380.06;;;-5.57;77.22
76864;BME280;65834;52.364;9.754;2022-12-18T02:21:24;102375.56;;;-5.52;77.25
76864;BME280;65834;52.364;9.754;2022-12-18T02:24:04;102378.22;;;-5.53;76.89
76864;BME280;65834;52.364;9.754;2022-12-18T02:26:47;102367.81;;;-5.58;76.82
76864;BME280;65834;52.364;9.754;2022-12-18T02:29:23;102372.22;;;-5.58;77.15
76864;BME280;65834;52.364;9.754;2022-12-18T02:31:56;102368.63;;;-5.56;76.63
76864;BME280;65834;52.364;9.754;2022-12-18T02:34:28;102372.31;;;-5.63;76.86
76864;BME280;65834;52.364;9.754;2022-12-18T02:37:02;102368.00;;;-5.65;76.91
76864;BME280;65834;52.364;9.754;2022-12-18T02:39:34;102359.31;;;-5.69;77.08
76864;BME280;65834;52.364;9.754;2022-12-18T02:42:08;102354.97;;;-5.70;77.11
76864;BME280;65834;52.364;9.754;2022-12-18T02:44:43;102363.78;;;-5.71;77.31
76864;BME280;65834;52.364;9.754;2022-12-18T02:47:19;102350.56;;;-5.69;77.28
76864;BME280;65834;52.364;9.754;2022-12-18T02:49:57;102354.97;;;-5.70;77.39
76864;BME280;65834;52.364;9.754;2022-12-18T02:52:37;102349.72;;;-5.71;77.83
76864;BME280;65834;52.364;9.754;2022-12-18T02:55:22;102349.88;;;-5.76;77.41
76864;BME280;65834;52.364;9.754;2022-12-18T02:58:07;102351.50;;;-5.72;77.71
76864;BME280;65834;52.364;9.754;2022-12-18T03:00:43;102356.56;;;-5.64;77.28
76864;BME280;65834;52.364;9.754;2022-12-18T03:03:20;102362.81;;;-5.68;77.57
76864;BME280;65834;52.364;9.754;2022-12-18T03:05:56;102356.75;;;-5.72;77.42
76864;BME280;65834;52.364;9.754;2022-12-18T03:08:30;102358.56;;;-5.72;77.22
76864;BME280;65834;52.364;9.754;2022-12-18T03:11:03;102344.47;;;-5.71;77.62
76864;BME280;65834;52.364;9.754;2022-12-18T03:13:39;102341.88;;;-5.73;77.42
76864;BME280;65834;52.364;9.754;2022-12-18T03:16:15;102349.69;;;-5.70;77.40
76864;BME280;65834;52.364;9.754;2022-12-18T03:18:48;102342.66;;;-5.69;77.52
76864;BME280;65834;52.364;9.754;2022-12-18T03:21:22;102341.88;;;-5.73;77.67
76864;BME280;65834;52.364;9.754;2022-12-18T03:23:54;102340.16;;;-5.74;77.75
76864;BME280;65834;52.364;9.754;2022-12-18T03:26:26;102333.84;;;-5.68;77.59
76864;BME280;65834;52.364;9.754;2022-12-18T03:29:06;102339.09;;;-5.68;77.55
76864;BME280;65834;52.364;9.754;2022-12-18T03:31:37;102340.53;;;-5.57;76.86
76864;BME280;65834;52.364;9.754;2022-12-18T03:34:12;102333.94;;;-5.71;77.38
76864;BME280;65834;52.364;9.754;2022-12-18T03:36:45;102337.41;;;-5.69;77.47
76864;BME280;65834;52.364;9.754;2022-12-18T03:39:15;102348.09;;;-5.75;77.53
76864;BME280;65834;52.364;9.754;2022-12-18T03:41:57;102348.41;;;-5.86;77.68
76864;BME280;65834;52.364;9.754;2022-12-18T03:44:47;102361.50;;;-5.84;77.93
76864;BME280;65834;52.364;9.754;2022-12-18T03:47:27;102352.88;;;-5.88;77.81
76864;BME280;65834;52.364;9.754;2022-12-18T03:50:08;102340.41;;;-5.83;77.96
76864;BME280;65834;52.364;9.754;2022-12-18T03:52:48;102347.53;;;-5.86;77.73
76864;BME280;65834;52.364;9.754;2022-12-18T03:55:20;102350.06;;;-5.83;78.10
76864;BME280;65834;52.364;9.754;2022-12-18T03:57:58;102349.38;;;-5.88;78.35
76864;BME280;65834;52.364;9.754;2022-12-18T04:00:42;102353.88;;;-5.93;78.07
76864;BME280;65834;52.364;9.754;2022-12-18T04:03:13;102365.34;;;-5.94;78.25
76864;BME280;65834;52.364;9.754;2022-12-18T04:05:48;102353.88;;;-5.93;78.38
76864;BME280;65834;52.364;9.754;2022-12-18T04:08:21;102367.97;;;-5.94;78.15
76864;BME280;65834;52.364;9.754;2022-12-18T04:11:00;102362.63;;;-5.93;78.24
76864;BME280;65834;52.364;9.754;2022-12-18T04:13:33;102367.97;;;-5.94;78.18
76864;BME280;65834;52.364;9.754;2022-12-18T04:16:15;102365.44;;;-5.99;78.29
76864;BME280;65834;52.364;9.754;2022-12-18T04:18:48;102356.63;;;-5.98;78.44
76864;BME280;65834;52.364;9.754;2022-12-18T04:21:19;102369.16;;;-6.06;78.08
76864;BME280;65834;52.364;9.754;2022-12-18T04:23:49;102367.44;;;-6.09;78.20
76864;BME280;65834;52.364;9.754;2022-12-18T04:26:21;102361.19;;;-6.05;78.37
76864;BME280;65834;52.364;9.754;2022-12-18T04:29:11;102356.00;;;-6.06;78.13
76864;BME280;65834;52.364;9.754;2022-12-18T04:31:43;102360.56;;;-6.14;78.56
76864;BME280;65834;52.364;9.754;2022-12-18T04:34:14;102359.75;;;-6.16;78.52
76864;BME280;65834;52.364;9.754;2022-12-18T04:36:49;102357.91;;;-6.13;78.91
76864;BME280;65834;52.364;9.754;2022-12-18T04:39:20;102354.28;;;-6.09;78.77
76864;BME280;65834;52.364;9.754;2022-12-18T04:41:53;102364.06;;;-6.14;78.72
76864;BME280;65834;52.364;9.754;2022-12-18T04:44:22;102355.31;;;-6.14;78.52
76864;BME280;65834;52.364;9.754;2022-12-18T04:46:54;102351.84;;;-6.16;78.57
76864;BME280;65834;52.364;9.754;2022-12-18T04:49:24;102346.69;;;-6.21;78.62
76864;BME280;65834;52.364;9.754;2022-12-18T04:51:54;102337.91;;;-6.21;78.60
76864;BME280;65834;52.364;9.754;2022-12-18T04:54:24;102337.09;;;-6.23;78.69
76864;BME280;65834;52.364;9.754;2022-12-18T04:56:53;102344.97;;;-6.22;78.80
76864;BME280;65834;52.364;9.754;2022-12-18T04:59:23;102348.50;;;-6.23;78.65
76864;BME280;65834;52.364;9.754;2022-12-18T05:01:55;102346.03;;;-6.29;78.92
76864;BME280;65834;52.364;9.754;2022-12-18T05:04:24;102343.41;;;-6.30;78.97
76864;BME280;65834;52.364;9.754;2022-12-18T05:06:54;102344.28;;;-6.28;78.84
76864;BME280;65834;52.364;9.754;2022-12-18T05:09:23;102344.28;;;-6.28;78.83
76864;BME280;65834;52.364;9.754;2022-12-18T05:11:53;102348.53;;;-6.24;78.75
76864;BME280;65834;52.364;9.754;2022-12-18T05:14:23;102346.25;;;-6.38;79.01
76864;BME280;65834;52.364;9.754;2022-12-18T05:16:56;102357.50;;;-6.31;79.02
76864;BME280;65834;52.364;9.754;2022-12-18T05:19:27;102360.94;;;-6.29;79.21
76864;BME280;65834;52.364;9.754;2022-12-18T05:21:56;102367.19;;;-6.33;78.87
76864;BME280;65834;52.364;9.754;2022-12-18T05:24:26;102370.66;;;-6.31;78.97
76864;BME280;65834;52.364;9.754;2022-12-18T05:26:56;102362.63;;;-6.27;78.68
76864;BME280;65834;52.364;9.754;2022-12-18T05:29:25;102360.16;;;-6.33;78.44
76864;BME280;65834;52.364;9.754;2022-12-18T05:31:58;102359.19;;;-6.29;78.58
76864;BME280;65834;52.364;9.754;2022-12-18T05:34:27;102362.63;;;-6.25;78.42
76864;BME280;65834;52.364;9.754;2022-12-18T05:36:57;102364.44;;;-6.29;78.33
76864;BME280;65834;52.364;9.754;2022-12-18T05:39:27;102387.25;;;-6.28;78.37
76864;BME280;65834;52.364;9.754;2022-12-18T05:41:57;102373.97;;;-6.23;78.07
76864;BME280;65834;52.364;9.754;2022-12-18T05:44:26;102372.28;;;-6.27;78.28
76864;BME280;65834;52.364;9.754;2022-12-18T05:46:58;102386.25;;;-6.24;78.22
76864;BME280;65834;52.364;9.754;2022-12-18T05:49:28;102384.63;;;-6.28;78.19
76864;BME280;65834;52.364;9.754;2022-12-18T05:51:58;102389.75;;;-6.23;78.28
76864;BME280;65834;52.364;9.754;2022-12-18T05:54:27;102385.38;;;-6.24;78.24
76864;BME280;65834;52.364;9.754;2022-12-18T05:56:57;102402.84;;;-6.20;78.10
76864;BME280;65834;52.364;9.754;2022-12-18T05:59:27;102406.38;;;-6.21;78.01
76864;BME280;65834;52.364;9.754;2022-12-18T06:02:00;102402.97;;;-6.25;78.28
76864;BME280;65834;52.364;9.754;2022-12-18T06:04:29;102396.84;;;-6.27;78.30
76864;BME280;65834;52.364;9.754;2022-12-18T06:07:04;102395.09;;;-6.26;78.08
76864;BME280;65834;52.364;9.754;2022-12-18T06:09:34;102383.75;;;-6.28;77.91
76864;BME280;65834;52.364;9.754;2022-12-18T06:12:05;102386.47;;;-6.31;78.20
76864;BME280;65834;52.364;9.754;2022-12-18T06:14:34;102386.47;;;-6.31;78.21
76864;BME280;65834;52.364;9.754;2022-12-18T06:17:07;102400.28;;;-6.23;78.13
76864;BME280;65834;52.364;9.754;2022-12-18T06:19:36;102388.94;;;-6.25;78.53
76864;BME280;65834;52.364;9.754;2022-12-18T06:22:06;102396.84;;;-6.25;78.15
76864;BME280;65834;52.364;9.754;2022-12-18T06:24:35;102395.75;;;-6.18;77.74
76864;BME280;65834;52.364;9.754;2022-12-18T06:27:05;102395.84;;;-6.21;77.81
76864;BME280;65834;52.364;9.754;2022-12-18T06:29:34;102397.47;;;-6.16;77.79
76864;BME280;65834;52.364;9.754;2022-12-18T06:32:07;102387.94;;;-6.21;77.87
76864;BME280;65834;52.364;9.754;2022-12-18T06:34:37;102386.03;;;-6.15;77.65
76864;BME280;65834;52.364;9.754;2022-12-18T06:37:06;102386.78;;;-6.10;77.42
76864;BME280;65834;52.364;9.754;2022-12-18T06:39:36;102384.88;;;-6.03;77.25
76864;BME280;65834;52.364;9.754;2022-12-18T06:42:05;102393.50;;;-5.98;77.23
76864;BME280;65834;52.364;9.754;2022-12-18T06:44:35;102396.31;;;-6.04;77.38
76864;BME280;65834;52.364;9.754;2022-12-18T06:47:07;102398.72;;;-5.96;77.09
76864;BME280;65834;52.364;9.754;2022-12-18T06:49:37;102403.97;;;-5.95;77.12
76864;BME280;65834;52.364;9.754;2022-12-18T06:52:06;102409.16;;;-5.92;77.11
76864;BME280;65834;52.364;9.754;2022-12-18T06:54:36;102400.53;;;-5.97;77.61
76864;BME280;65834;52.364;9.754;2022-12-18T06:57:05;102403.16;;;-5.97;77.28
76864;BME280;65834;52.364;9.754;2022-12-18T06:59:35;102404.94;;;-5.99;77.42
76864;BME280;65834;52.364;9.754;2022-12-18T07:02:10;102407.66;;;-6.02;77.44
76864;BME280;65834;52.364;9.754;2022-12-18T07:04:41;102412.75;;;-5.94;77.56
76864;BME280;65834;52.364;9.754;2022-12-18T07:07:10;102419.84;;;-5.98;77.56
76864;BME280;65834;52.364;9.754;2022-12-18T07:09:40;102421.75;;;-6.03;77.73
76864;BME280;65834;52.364;9.754;2022-12-18T07:12:09;102412.97;;;-6.03;77.62
76864;BME280;65834;52.364;9.754;2022-12-18T07:14:39;102423.44;;;-6.02;77.61
76864;BME280;65834;52.364;9.754;2022-12-18T07:17:11;102425.25;;;-6.04;77.61
76864;BME280;65834;52.364;9.754;2022-12-18T07:19:40;102423.53;;;-6.05;77.70
76864;BME280;65834;52.364;9.754;2022-12-18T07:22:10;102440.28;;;-6.08;77.59
76864;BME280;65834;52.364;9.754;2022-12-18T07:24:40;102439.38;;;-6.07;77.72
76864;BME280;65834;52.364;9.754;2022-12-18T07:27:09;102442.09;;;-6.10;77.72
76864;BME280;65834;52.364;9.754;2022-12-18T07:29:39;102439.41;;;-6.08;77.96
76864;BME280;65834;52.364;9.754;2022-12-18T07:32:11;102442.88;;;-6.06;77.70
76864;BME280;65834;52.364;9.754;2022-12-18T07:34:40;102435.00;;;-6.08;77.49
76864;BME280;65834;52.364;9.754;2022-12-18T07:37:10;102440.28;;;-6.08;77.50
76864;BME280;65834;52.364;9.754;2022-12-18T07:39:40;102451.59;;;-6.04;77.56
76864;BME280;65834;52.364;9.754;2022-12-18T07:42:09;102449.78;;;-6.02;77.40
76864;BME280;65834;52.364;9.754;2022-12-18T07:44:52;102455.81;;;-5.97;77.16
76864;BME280;65834;52.364;9.754;2022-12-18T07:47:25;102465.44;;;-5.96;77.60
76864;BME280;65834;52.364;9.754;2022-12-18T07:49:56;102458.41;;;-5.95;77.18
76864;BME280;65834;52.364;9.754;2022-12-18T07:52:26;102459.28;;;-5.96;77.13
76864;BME280;65834;52.364;9.754;2022-12-18T07:54:56;102459.28;;;-5.96;77.32
76864;BME280;65834;52.364;9.754;2022-12-18T07:57:26;102455.84;;;-5.98;76.99
76864;BME280;65834;52.364;9.754;2022-12-18T08:00:16;102450.41;;;-5.91;77.01
76864;BME280;65834;52.364;9.754;2022-12-18T08:02:49;102440.41;;;-5.80;76.55
76864;BME280;65834;52.364;9.754;2022-12-18T08:05:19;102435.25;;;-5.84;76.36
76864;BME280;65834;52.364;9.754;2022-12-18T08:07:49;102438.88;;;-5.87;76.70
76864;BME280;65834;52.364;9.754;2022-12-18T08:10:19;102434.41;;;-5.85;76.81
76864;BME280;65834;52.364;9.754;2022-12-18T08:12:49;102434.25;;;-5.79;76.69
76864;BME280;65834;52.364;9.754;2022-12-18T08:15:19;102436.97;;;-5.82;76.48
76864;BME280;65834;52.364;9.754;2022-12-18T08:17:52;102430.81;;;-5.82;76.53
76864;BME280;65834;52.364;9.754;2022-12-18T08:20:21;102433.41;;;-5.81;76.18
76864;BME280;65834;52.364;9.754;2022-12-18T08:22:51;102420.94;;;-5.73;76.34
76864;BME280;65834;52.364;9.754;2022-12-18T08:25:20;102424.44;;;-5.72;76.17
76864;BME280;65834;52.364;9.754;2022-12-18T08:27:50;102428.38;;;-5.56;76.32
76864;BME280;65834;52.364;9.754;2022-12-18T08:30:20;102438.13;;;-5.60;76.09
76864;BME280;65834;52.364;9.754;2022-12-18T08:32:53;102422.19;;;-5.55;76.45
76864;BME280;65834;52.364;9.754;2022-12-18T08:35:23;102421.16;;;-5.50;76.41
76864;BME280;65834;52.364;9.754;2022-12-18T08:38:01;102412.28;;;-5.45;76.20
76864;BME280;65834;52.364;9.754;2022-12-18T08:40:31;102407.72;;;-5.39;75.85
76864;BME280;65834;52.364;9.754;2022-12-18T08:43:00;102394.47;;;-5.37;75.91
76864;BME280;65834;52.364;9.754;2022-12-18T08:45:42;102405.84;;;-5.35;75.80
76864;BME280;65834;52.364;9.754;2022-12-18T08:48:14;102411.72;;;-5.26;75.15
76864;BME280;65834;52.364;9.754;2022-12-18T08:50:54;102402.88;;;-5.23;75.17
76864;BME280;65834;52.364;9.754;2022-12-18T08:53:25;102405.41;;;-5.20;75.40
76864;BME280;65834;52.364;9.754;2022-12-18T08:56:02;102408.84;;;-5.17;75.59
76864;BME280;65834;52.364;9.754;2022-12-18T08:58:32;102401.59;;;-5.10;75.53
76864;BME280;65834;52.364;9.754;2022-12-18T09:01:02;102402.38;;;-5.07;75.36
76864;BME280;65834;52.364;9.754;2022-12-18T09:03:34;102402.06;;;-4.96;74.98
76864;BME280;65834;52.364;9.754;2022-12-18T09:06:06;102402.88;;;-4.94;74.86
76864;BME280;65834;52.364;9.754;2022-12-18T09:08:36;102405.31;;;-4.86;74.65
76864;BME280;65834;52.364;9.754;2022-12-18T09:11:12;102403.34;;;-4.80;74.76
76864;BME280;65834;52.364;9.754;2022-12-18T09:13:42;102399.59;;;-4.73;74.64
76864;BME280;65834;52.364;9.754;2022-12-18T09:16:11;102398.44;;;-4.64;74.65
76864;BME280;65834;52.364;9.754;2022-12-18T09:18:44;102387.78;;;-4.61;74.39
76864;BME280;65834;52.364;9.754;2022-12-18T09:21:15;102384.91;;;-4.54;74.56
76864;BME280;65834;52.364;9.754;2022-12-18T09:23:49;102385.59;;;-4.47;74.68
76864;BME280;65834;52.364;9.754;2022-12-18T09:26:19;102396.00;;;-4.43;73.93
76864;BME280;65834;52.364;9.754;2022-12-18T09:28:48;102387.03;;;-4.37;74.42
76864;BME280;65834;52.364;9.754;2022-12-18T09:31:19;102381.50;;;-4.29;74.43
76864;BME280;65834;52.364;9.754;2022-12-18T09:33:54;102384.91;;;-4.26;74.09
76864;BME280;65834;52.364;9.754;2022-12-18T09:36:24;102385.47;;;-4.16;73.95
76864;BME280;65834;52.364;9.754;2022-12-18T09:38:53;102384.50;;;-4.14;74.08
76864;BME280;65834;52.364;9.754;2022-12-18T09:41:36;102390.91;;;-3.95;73.39
76864;BME280;65834;52.364;9.754;2022-12-18T09:44:15;102398.63;;;-3.89;73.26
76864;BME280;65834;52.364;9.754;2022-12-18T09:46:50;102395.38;;;-3.72;73.52
76864;BME280;65834;52.364;9.754;2022-12-18T09:49:28;102390.53;;;-3.59;72.20
76864;BME280;65834;52.364;9.754;2022-12-18T09:52:02;102397.13;;;-3.46;72.74
76864;BME280;65834;52.364;9.754;2022-12-18T09:54:38;102406.03;;;-3.24;71.61
76864;BME280;65834;52.364;9.754;2022-12-18T09:57:12;102417.94;;;-3.12;71.98
76864;BME280;65834;52.364;9.754;2022-12-18T09:59:44;102413.72;;;-2.95;70.96
76864;BME280;65834;52.364;9.754;2022-12-18T10:02:17;102403.56;;;-2.82;70.88
76864;BME280;65834;52.364;9.754;2022-12-18T10:05:00;102403.09;;;-2.70;70.80
76864;BME280;65834;52.364;9.754;2022-12-18T10:07:39;102397.78;;;-2.70;71.06
76864;BME280;65834;52.364;9.754;2022-12-18T10:10:19;102407.91;;;-2.58;69.77
76864;BME280;65834;52.364;9.754;2022-12-18T10:12:57;102406.47;;;-2.43;69.62
76864;BME280;65834;52.364;9.754;2022-12-18T10:15:35;102409.44;;;-2.31;69.53
76864;BME280;65834;52.364;9.754;2022-12-18T10:18:18;102414.53;;;-2.25;69.08
76864;BME280;65834;52.364;9.754;2022-12-18T10:20:58;102418.09;;;-2.04;68.67
76864;BME280;65834;52.364;9.754;2022-12-18T10:23:33;102415.69;;;-1.88;67.36
76864;BME280;65834;52.364;9.754;2022-12-18T10:26:14;102415.75;;;-1.70;67.84
76864;BME280;65834;52.364;9.754;2022-12-18T10:28:44;102401.97;;;-1.57;67.41
76864;BME280;65834;52.364;9.754;2022-12-18T10:31:16;102398.06;;;-1.49;66.91
76864;BME280;65834;52.364;9.754;2022-12-18T10:33:49;102396.44;;;-1.53;66.73
76864;BME280;65834;52.364;9.754;2022-12-18T10:36:23;102393.66;;;-1.50;67.01
76864;BME280;65834;52.364;9.754;2022-12-18T10:38:52;102393.72;;;-1.31;67.08
76864;BME280;65834;52.364;9.754;2022-12-18T10:41:26;102391.28;;;-1.36;67.00
76864;BME280;65834;52.364;9.754;2022-12-18T10:44:12;102395.63;;;-1.15;66.38
76864;BME280;65834;52.364;9.754;2022-12-18T10:46:44;102399.56;;;-1.04;66.19
76864;BME280;65834;52.364;9.754;2022-12-18T10:49:21;102393.72;;;-0.92;65.23
76864;BME280;65834;52.364;9.754;2022-12-18T10:52:05;102388.13;;;-0.86;65.98
76864;BME280;65834;52.364;9.754;2022-12-18T10:54:36;102392.22;;;-0.61;65.25
76864;BME280;65834;52.364;9.754;2022-12-18T10:57:16;102387.66;;;-0.40;64.55
76864;BME280;65834;52.364;9.754;2022-12-18T10:59:51;102384.66;;;-0.32;65.51
76864;BME280;65834;52.364;9.754;2022-12-18T11:02:27;102370.91;;;-0.23;64.46
76864;BME280;65834;52.364;9.754;2022-12-18T11:04:57;102360.28;;;-0.23;65.21
76864;BME280;65834;52.364;9.754;2022-12-18T11:07:47;102347.63;;;-0.37;64.16
76864;BME280;65834;52.364;9.754;2022-12-18T11:10:18;102343.00;;;-0.15;63.87
76864;BME280;65834;52.364;9.754;2022-12-18T11:12:48;102331.53;;;0.02;63.63
76864;BME280;65834;52.364;9.754;2022-12-18T11:15:20;102350.94;;;0.21;64.07
76864;BME280;65834;52.364;9.754;2022-12-18T11:17:51;102356.59;;;0.31;63.10
76864;BME280;65834;52.364;9.754;2022-12-18T11:20:29;102355.13;;;0.25;63.36
76864;BME280;65834;52.364;9.754;2022-12-18T11:23:04;102362.56;;;0.36;63.39
76864;BME280;65834;52.364;9.754;2022-12-18T11:25:34;102364.75;;;0.28;62.74
76864;BME280;65834;52.364;9.754;2022-12-18T11:28:23;102364.13;;;0.23;62.56
76864;BME280;65834;52.364;9.754;2022-12-18T11:31:11;102354.25;;;0.25;64.04
76864;BME280;65834;52.364;9.754;2022-12-18T11:33:44;102359.22;;;0.32;63.57
76864;BME280;65834;52.364;9.754;2022-12-18T11:36:39;102348.78;;;0.45;63.65
76864;BME280;65834;52.364;9.754;2022-12-18T11:39:18;102354.38;;;0.56;63.59
76864;BME280;65834;52.364;9.754;2022-12-18T11:41:53;102338.19;;;0.61;62.21
76864;BME280;65834;52.364;9.754;2022-12-18T11:44:44;102343.91;;;0.53;63.62
76864;BME280;65834;52.364;9.754;2022-12-18T11:47:25;102332.16;;;0.24;63.17
76864;BME280;65834;52.364;9.754;2022-12-18T11:50:00;102322.97;;;0.13;63.34
76864;BME280;65834;52.364;9.754;2022-12-18T11:52:35;102313.59;;;0.06;62.84
76864;BME280;65834;52.364;9.754;2022-12-18T11:55:13;102299.59;;;0.02;64.14
76864;BME280;65834;52.364;9.754;2022-12-18T11:57:51;102292.00;;;-0.06;63.30
76864;BME280;65834;52.364;9.754;2022-12-18T12:00:24;102287.00;;;-0.12;63.90
76864;BME280;65834;52.364;9.754;2022-12-18T12:03:18;102282.66;;;-0.13;64.22
76864;BME280;65834;52.364;9.754;2022-12-18T12:06:03;102277.31;;;-0.13;64.03
76864;BME280;65834;52.364;9.754;2022-12-18T12:08:44;102277.06;;;-0.08;63.90
76864;BME280;65834;52.364;9.754;2022-12-18T12:11:27;102267.06;;;-0.20;65.54
76864;BME280;65834;52.364;9.754;2022-12-18T12:14:17;102265.66;;;-0.10;63.81
76864;BME280;65834;52.364;9.754;2022-12-18T12:16:57;102267.53;;;-0.12;65.18
76864;BME280;65834;52.364;9.754;2022-12-18T12:19:36;102253.13;;;-0.08;64.43
76864;BME280;65834;52.364;9.754;2022-12-18T12:22:15;102253.47;;;-0.14;65.09
76864;BME280;65834;52.364;9.754;2022-12-18T12:24:57;102247.91;;;-0.10;64.85
76864;BME280;65834;52.364;9.754;2022-12-18T12:27:40;102243.38;;;-0.08;63.73
76864;BME280;65834;52.364;9.754;2022-12-18T12:30:18;102254.06;;;0.08;64.11
76864;BME280;65834;52.364;9.754;2022-12-18T12:33:04;102255.38;;;0.17;62.66
76864;BME280;65834;52.364;9.754;2022-12-18T12:35:44;102263.81;;;0.25;61.27
76864;BME280;65834;52.364;9.754;2022-12-18T12:38:19;102246.47;;;0.18;61.50
76864;BME280;65834;52.364;9.754;2022-12-18T12:40:53;102245.44;;;0.20;62.32
76864;BME280;65834;52.364;9.754;2022-12-18T12:43:38;102247.84;;;0.25;61.64
76864;BME280;65834;52.364;9.754;2022-12-18T12:46:16;102243.22;;;0.28;61.93
76864;BME280;65834;52.364;9.754;2022-12-18T12:48:51;102239.78;;;0.26;62.00
76864;BME280;65834;52.364;9.754;2022-12-18T12:51:25;102228.28;;;0.26;62.80
76864;BME280;65834;52.364;9.754;2022-12-18T12:53:57;102226.38;;;0.12;61.94
76864;BME280;65834;52.364;9.754;2022-12-18T12:56:30;102223.72;;;0.12;61.75
76864;BME280;65834;52.364;9.754;2022-12-18T12:59:13;102230.75;;;0.13;62.10
76864;BME280;65834;52.364;9.754;2022-12-18T13:01:52;102230.53;;;0.00;62.47
76864;BME280;65834;52.364;9.754;2022-12-18T13:04:32;102223.66;;;-0.04;62.86
76864;BME280;65834;52.364;9.754;2022-12-18T13:07:12;102220.31;;;-0.07;63.33
76864;BME280;65834;52.364;9.754;2022-12-18T13:10:12;102211.38;;;-0.06;63.00
76864;BME280;65834;52.364;9.754;2022-12-18T13:13:03;102203.88;;;-0.15;63.40
76864;BME280;65834;52.364;9.754;2022-12-18T13:15:41;102205.91;;;-0.20;62.14
76864;BME280;65834;52.364;9.754;2022-12-18T13:18:18;102208.84;;;-0.25;62.41
76864;BME280;65834;52.364;9.754;2022-12-18T13:20:50;102210.13;;;-0.33;62.79
76864;BME280;65834;52.364;9.754;2022-12-18T13:23:31;102220.94;;;-0.53;62.24
76864;BME280;65834;52.364;9.754;2022-12-18T13:26:31;102234.38;;;-0.57;62.65